sensor_id;sensor_type;location;lat;lon;timestamp;P1;durP1;ratioP1;P2;durP2;ratioP2
1977;SDS011;989;53.016;8.346;2023-02-22T00:01:39;71.90;;;23.30;;
1977;SDS011;989;53.016;8.346;2023-02-22T00:04:35;68.33;;;22.10;;
1977;SDS011;989;53.016;8.346;2023-02-22T00:07:03;74.03;;;23.30;;
1977;SDS011;989;53.016;8.346;2023-02-22T00:09:29;84.53;;;25.50;;
1977;SDS011;989;53.016;8.346;2023-02-22T00:11:55;68.70;;;23.57;;
1977;SDS011;989;53.016;8.346;2023-02-22T00:14:22;82.17;;;25.33;;
1977;SDS011;989;53.016;8.346;2023-02-22T00:16:51;87.40;;;25.47;;
1977;SDS011;989;53.016;8.346;2023-02-22T00:19:20;63.13;;;21.53;;
1977;SDS011;989;53.016;8.346;2023-02-22T00:21:50;78.20;;;23.40;;
1977;SDS011;989;53.016;8.346;2023-02-22T00:24:17;70.30;;;21.33;;
1977;SDS011;989;53.016;8.346;2023-02-22T00:26:50;75.97;;;22.90;;
1977;SDS011;989;53.016;8.346;2023-02-22T00:29:16;78.43;;;23.03;;
1977;SDS011;989;53.016;8.346;2023-02-22T00:31:42;77.23;;;22.90;;
1977;SDS011;989;53.016;8.346;2023-02-22T00:34:08;86.00;;;23.60;;
1977;SDS011;989;53.016;8.346;2023-02-22T00:36:34;64.40;;;22.90;;
1977;SDS011;989;53.016;8.346;2023-02-22T00:39:00;72.87;;;22.37;;
1977;SDS011;989;53.016;8.346;2023-02-22T00:41:26;67.03;;;23.10;;
1977;SDS011;989;53.016;8.346;2023-02-22T00:43:51;74.10;;;24.43;;
1977;SDS011;989;53.016;8.346;2023-02-22T00:46:18;67.73;;;23.20;;
1977;SDS011;989;53.016;8.346;2023-02-22T00:48:44;72.47;;;24.33;;
1977;SDS011;989;53.016;8.346;2023-02-22T00:51:10;81.40;;;23.60;;
1977;SDS011;989;53.016;8.346;2023-02-22T00:53:36;75.30;;;23.40;;
1977;SDS011;989;53.016;8.346;2023-02-22T00:56:01;73.03;;;23.87;;
1977;SDS011;989;53.016;8.346;2023-02-22T00:58:27;79.97;;;23.37;;
1977;SDS011;989;53.016;8.346;2023-02-22T01:00:53;78.83;;;24.80;;
1977;SDS011;989;53.016;8.346;2023-02-22T01:03:19;64.60;;;24.27;;
1977;SDS011;989;53.016;8.346;2023-02-22T01:05:46;71.73;;;22.03;;
1977;SDS011;989;53.016;8.346;2023-02-22T01:08:13;84.10;;;23.37;;
1977;SDS011;989;53.016;8.346;2023-02-22T01:10:39;93.33;;;22.53;;
1977;SDS011;989;53.016;8.346;2023-02-22T01:13:06;80.90;;;22.77;;
1977;SDS011;989;53.016;8.346;2023-02-22T01:15:33;83.77;;;25.40;;
1977;SDS011;989;53.016;8.346;2023-02-22T01:17:59;88.93;;;22.80;;
1977;SDS011;989;53.016;8.346;2023-02-22T01:20:25;81.93;;;24.80;;
1977;SDS011;989;53.016;8.346;2023-02-22T01:22:52;83.20;;;23.90;;
1977;SDS011;989;53.016;8.346;2023-02-22T01:25:20;84.97;;;25.33;;
1977;SDS011;989;53.016;8.346;2023-02-22T01:27:46;80.03;;;23.80;;
1977;SDS011;989;53.016;8.346;2023-02-22T01:30:14;77.75;;;26.48;;
1977;SDS011;989;53.016;8.346;2023-02-22T01:32:41;91.40;;;25.60;;
1977;SDS011;989;53.016;8.346;2023-02-22T01:35:09;73.73;;;21.50;;
1977;SDS011;989;53.016;8.346;2023-02-22T01:37:37;82.13;;;23.47;;
1977;SDS011;989;53.016;8.346;2023-02-22T01:40:04;77.30;;;23.90;;
1977;SDS011;989;53.016;8.346;2023-02-22T01:42:31;74.95;;;24.23;;
1977;SDS011;989;53.016;8.346;2023-02-22T01:47:41;82.97;;;22.47;;
1977;SDS011;989;53.016;8.346;2023-02-22T01:50:07;74.50;;;22.77;;
1977;SDS011;989;53.016;8.346;2023-02-22T01:52:34;87.00;;;24.50;;
1977;SDS011;989;53.016;8.346;2023-02-22T01:55:02;87.37;;;23.90;;
1977;SDS011;989;53.016;8.346;2023-02-22T01:57:32;67.50;;;25.30;;
1977;SDS011;989;53.016;8.346;2023-02-22T02:00:00;72.47;;;27.83;;
1977;SDS011;989;53.016;8.346;2023-02-22T02:02:33;80.90;;;24.70;;
1977;SDS011;989;53.016;8.346;2023-02-22T02:04:59;61.97;;;22.70;;
1977;SDS011;989;53.016;8.346;2023-02-22T02:07:25;78.30;;;25.90;;
1977;SDS011;989;53.016;8.346;2023-02-22T02:09:57;65.60;;;24.97;;
1977;SDS011;989;53.016;8.346;2023-02-22T02:12:24;73.73;;;23.30;;
1977;SDS011;989;53.016;8.346;2023-02-22T02:14:50;74.83;;;24.27;;
1977;SDS011;989;53.016;8.346;2023-02-22T02:17:18;67.60;;;24.00;;
1977;SDS011;989;53.016;8.346;2023-02-22T02:37:40;81.43;;;24.23;;
1977;SDS011;989;53.016;8.346;2023-02-22T02:42:56;66.17;;;23.00;;
1977;SDS011;989;53.016;8.346;2023-02-22T02:45:35;67.53;;;22.50;;
1977;SDS011;989;53.016;8.346;2023-02-22T02:48:04;78.43;;;23.03;;
1977;SDS011;989;53.016;8.346;2023-02-22T02:50:44;79.57;;;26.10;;
1977;SDS011;989;53.016;8.346;2023-02-22T02:53:12;72.97;;;23.77;;
1977;SDS011;989;53.016;8.346;2023-02-22T02:55:38;73.20;;;22.90;;
1977;SDS011;989;53.016;8.346;2023-02-22T02:58:05;68.83;;;21.90;;
1977;SDS011;989;53.016;8.346;2023-02-22T03:00:32;71.43;;;24.20;;
1977;SDS011;989;53.016;8.346;2023-02-22T03:08:08;71.87;;;22.60;;
1977;SDS011;989;53.016;8.346;2023-02-22T03:13:29;61.83;;;22.83;;
1977;SDS011;989;53.016;8.346;2023-02-22T03:16:14;75.53;;;22.30;;
1977;SDS011;989;53.016;8.346;2023-02-22T03:18:48;71.70;;;23.70;;
1977;SDS011;989;53.016;8.346;2023-02-22T03:21:21;65.73;;;21.90;;
1977;SDS011;989;53.016;8.346;2023-02-22T03:23:50;69.53;;;23.50;;
1977;SDS011;989;53.016;8.346;2023-02-22T03:26:55;62.03;;;21.27;;
1977;SDS011;989;53.016;8.346;2023-02-22T03:29:12;60.17;;;21.33;;
1977;SDS011;989;53.016;8.346;2023-02-22T03:31:41;69.17;;;22.87;;
1977;SDS011;989;53.016;8.346;2023-02-22T03:34:10;60.30;;;22.47;;
1977;SDS011;989;53.016;8.346;2023-02-22T03:36:47;71.17;;;22.43;;
1977;SDS011;989;53.016;8.346;2023-02-22T03:39:15;58.37;;;20.00;;
1977;SDS011;989;53.016;8.346;2023-02-22T03:41:47;67.07;;;21.90;;
1977;SDS011;989;53.016;8.346;2023-02-22T03:44:17;73.47;;;20.97;;
1977;SDS011;989;53.016;8.346;2023-02-22T03:46:46;56.13;;;21.50;;
1977;SDS011;989;53.016;8.346;2023-02-22T03:49:34;54.53;;;20.97;;
1977;SDS011;989;53.016;8.346;2023-02-22T03:52:01;53.17;;;19.67;;
1977;SDS011;989;53.016;8.346;2023-02-22T03:54:27;67.13;;;20.87;;
1977;SDS011;989;53.016;8.346;2023-02-22T03:56:55;67.47;;;23.07;;
1977;SDS011;989;53.016;8.346;2023-02-22T03:59:22;58.07;;;20.47;;
1977;SDS011;989;53.016;8.346;2023-02-22T04:01:51;71.27;;;23.43;;
1977;SDS011;989;53.016;8.346;2023-02-22T04:04:17;67.67;;;20.70;;
1977;SDS011;989;53.016;8.346;2023-02-22T04:06:45;58.10;;;21.23;;
1977;SDS011;989;53.016;8.346;2023-02-22T04:09:12;60.60;;;20.50;;
1977;SDS011;989;53.016;8.346;2023-02-22T04:11:38;75.67;;;20.63;;
1977;SDS011;989;53.016;8.346;2023-02-22T04:14:04;60.20;;;19.27;;
1977;SDS011;989;53.016;8.346;2023-02-22T04:16:30;52.87;;;20.00;;
1977;SDS011;989;53.016;8.346;2023-02-22T04:18:56;66.60;;;22.90;;
1977;SDS011;989;53.016;8.346;2023-02-22T04:21:21;57.50;;;20.73;;
1977;SDS011;989;53.016;8.346;2023-02-22T04:23:48;49.83;;;19.10;;
1977;SDS011;989;53.016;8.346;2023-02-22T04:26:13;41.77;;;17.57;;
1977;SDS011;989;53.016;8.346;2023-02-22T04:28:39;50.90;;;20.13;;
1977;SDS011;989;53.016;8.346;2023-02-22T04:31:05;64.37;;;21.90;;
1977;SDS011;989;53.016;8.346;2023-02-22T04:33:31;48.50;;;19.43;;
1977;SDS011;989;53.016;8.346;2023-02-22T04:35:58;55.80;;;21.93;;
1977;SDS011;989;53.016;8.346;2023-02-22T04:38:24;55.50;;;19.90;;
1977;SDS011;989;53.016;8.346;2023-02-22T04:40:50;57.13;;;22.17;;
1977;SDS011;989;53.016;8.346;2023-02-22T04:43:16;56.87;;;21.73;;
1977;SDS011;989;53.016;8.346;2023-02-22T04:45:43;52.83;;;20.00;;
1977;SDS011;989;53.016;8.346;2023-02-22T04:48:09;66.53;;;20.07;;
1977;SDS011;989;53.016;8.346;2023-02-22T04:50:34;58.90;;;19.70;;
1977;SDS011;989;53.016;8.346;2023-02-22T04:53:01;55.23;;;20.90;;
1977;SDS011;989;53.016;8.346;2023-02-22T04:55:27;56.57;;;18.80;;
1977;SDS011;989;53.016;8.346;2023-02-22T04:57:53;59.93;;;21.57;;
1977;SDS011;989;53.016;8.346;2023-02-22T05:00:19;54.30;;;20.87;;
1977;SDS011;989;53.016;8.346;2023-02-22T05:02:46;64.67;;;22.17;;
1977;SDS011;989;53.016;8.346;2023-02-22T05:05:13;62.17;;;23.30;;
1977;SDS011;989;53.016;8.346;2023-02-22T05:07:40;62.07;;;20.03;;
1977;SDS011;989;53.016;8.346;2023-02-22T05:10:06;78.80;;;23.37;;
1977;SDS011;989;53.016;8.346;2023-02-22T05:12:32;61.60;;;19.77;;
1977;SDS011;989;53.016;8.346;2023-02-22T05:14:59;64.67;;;20.53;;
1977;SDS011;989;53.016;8.346;2023-02-22T05:17:25;59.23;;;20.57;;
1977;SDS011;989;53.016;8.346;2023-02-22T05:19:51;65.87;;;18.60;;
1977;SDS011;989;53.016;8.346;2023-02-22T05:22:17;57.67;;;20.03;;
1977;SDS011;989;53.016;8.346;2023-02-22T05:24:43;54.63;;;19.73;;
1977;SDS011;989;53.016;8.346;2023-02-22T05:27:09;64.10;;;20.50;;
1977;SDS011;989;53.016;8.346;2023-02-22T05:29:36;72.00;;;22.57;;
1977;SDS011;989;53.016;8.346;2023-02-22T05:32:03;53.37;;;19.73;;
1977;SDS011;989;53.016;8.346;2023-02-22T05:34:29;56.23;;;21.53;;
1977;SDS011;989;53.016;8.346;2023-02-22T05:36:55;55.57;;;18.37;;
1977;SDS011;989;53.016;8.346;2023-02-22T05:39:21;55.57;;;21.50;;
1977;SDS011;989;53.016;8.346;2023-02-22T05:41:47;55.77;;;18.97;;
1977;SDS011;989;53.016;8.346;2023-02-22T05:44:13;61.70;;;21.97;;
1977;SDS011;989;53.016;8.346;2023-02-22T05:46:39;55.97;;;20.83;;
1977;SDS011;989;53.016;8.346;2023-02-22T05:49:05;51.37;;;18.23;;
1977;SDS011;989;53.016;8.346;2023-02-22T05:51:31;60.83;;;19.70;;
1977;SDS011;989;53.016;8.346;2023-02-22T05:53:57;59.00;;;20.60;;
1977;SDS011;989;53.016;8.346;2023-02-22T05:56:24;57.77;;;18.90;;
1977;SDS011;989;53.016;8.346;2023-02-22T05:58:50;61.20;;;17.40;;
1977;SDS011;989;53.016;8.346;2023-02-22T06:01:16;53.97;;;18.77;;
1977;SDS011;989;53.016;8.346;2023-02-22T06:03:45;46.20;;;19.50;;
1977;SDS011;989;53.016;8.346;2023-02-22T06:06:11;47.40;;;18.03;;
1977;SDS011;989;53.016;8.346;2023-02-22T06:08:37;49.60;;;18.53;;
1977;SDS011;989;53.016;8.346;2023-02-22T06:11:03;44.90;;;18.23;;
1977;SDS011;989;53.016;8.346;2023-02-22T06:13:29;48.00;;;20.70;;
1977;SDS011;989;53.016;8.346;2023-02-22T06:15:55;55.10;;;19.77;;
1977;SDS011;989;53.016;8.346;2023-02-22T06:18:21;49.00;;;17.90;;
1977;SDS011;989;53.016;8.346;2023-02-22T06:20:50;47.47;;;17.97;;
1977;SDS011;989;53.016;8.346;2023-02-22T06:23:16;49.30;;;18.27;;
1977;SDS011;989;53.016;8.346;2023-02-22T06:25:42;56.47;;;17.63;;
1977;SDS011;989;53.016;8.346;2023-02-22T06:28:08;53.07;;;19.90;;
1977;SDS011;989;53.016;8.346;2023-02-22T06:30:34;41.00;;;18.00;;
1977;SDS011;989;53.016;8.346;2023-02-22T06:33:00;56.63;;;20.77;;
1977;SDS011;989;53.016;8.346;2023-02-22T06:35:26;49.70;;;19.27;;
1977;SDS011;989;53.016;8.346;2023-02-22T06:37:52;41.80;;;18.87;;
1977;SDS011;989;53.016;8.346;2023-02-22T06:40:18;46.13;;;16.93;;
1977;SDS011;989;53.016;8.346;2023-02-22T06:42:46;55.87;;;21.93;;
1977;SDS011;989;53.016;8.346;2023-02-22T06:45:12;47.20;;;18.60;;
1977;SDS011;989;53.016;8.346;2023-02-22T06:47:39;54.40;;;20.17;;
1977;SDS011;989;53.016;8.346;2023-02-22T06:50:06;47.87;;;17.60;;
1977;SDS011;989;53.016;8.346;2023-02-22T06:52:33;62.80;;;19.70;;
1977;SDS011;989;53.016;8.346;2023-02-22T06:54:58;66.80;;;18.53;;
1977;SDS011;989;53.016;8.346;2023-02-22T06:57:24;48.20;;;18.70;;
1977;SDS011;989;53.016;8.346;2023-02-22T06:59:50;62.33;;;20.63;;
1977;SDS011;989;53.016;8.346;2023-02-22T07:02:16;53.30;;;19.63;;
1977;SDS011;989;53.016;8.346;2023-02-22T07:04:44;54.63;;;19.77;;
1977;SDS011;989;53.016;8.346;2023-02-22T07:07:10;64.37;;;20.63;;
1977;SDS011;989;53.016;8.346;2023-02-22T07:09:36;65.93;;;21.07;;
1977;SDS011;989;53.016;8.346;2023-02-22T07:12:02;60.67;;;19.83;;
1977;SDS011;989;53.016;8.346;2023-02-22T07:14:27;64.40;;;19.57;;
1977;SDS011;989;53.016;8.346;2023-02-22T07:16:53;64.47;;;21.13;;
1977;SDS011;989;53.016;8.346;2023-02-22T07:19:19;68.27;;;21.50;;
1977;SDS011;989;53.016;8.346;2023-02-22T07:21:45;55.30;;;19.03;;
1977;SDS011;989;53.016;8.346;2023-02-22T07:24:12;63.70;;;22.07;;
1977;SDS011;989;53.016;8.346;2023-02-22T07:26:38;56.07;;;20.10;;
1977;SDS011;989;53.016;8.346;2023-02-22T07:29:05;78.90;;;23.00;;
1977;SDS011;989;53.016;8.346;2023-02-22T07:31:37;67.17;;;21.83;;
1977;SDS011;989;53.016;8.346;2023-02-22T07:34:03;72.73;;;21.13;;
1977;SDS011;989;53.016;8.346;2023-02-22T07:36:29;52.93;;;17.80;;
1977;SDS011;989;53.016;8.346;2023-02-22T07:38:55;58.00;;;19.40;;
1977;SDS011;989;53.016;8.346;2023-02-22T07:41:21;62.90;;;20.53;;
1977;SDS011;989;53.016;8.346;2023-02-22T07:43:47;60.80;;;21.10;;
1977;SDS011;989;53.016;8.346;2023-02-22T07:46:13;59.33;;;21.20;;
1977;SDS011;989;53.016;8.346;2023-02-22T07:48:39;58.17;;;19.20;;
1977;SDS011;989;53.016;8.346;2023-02-22T07:51:05;66.03;;;19.03;;
1977;SDS011;989;53.016;8.346;2023-02-22T07:53:31;62.77;;;17.30;;
1977;SDS011;989;53.016;8.346;2023-02-22T07:55:58;48.17;;;17.33;;
1977;SDS011;989;53.016;8.346;2023-02-22T07:58:25;55.33;;;20.17;;
1977;SDS011;989;53.016;8.346;2023-02-22T08:00:52;50.03;;;18.90;;
1977;SDS011;989;53.016;8.346;2023-02-22T08:03:20;46.87;;;17.30;;
1977;SDS011;989;53.016;8.346;2023-02-22T08:05:47;59.53;;;19.50;;
1977;SDS011;989;53.016;8.346;2023-02-22T08:08:13;54.43;;;18.20;;
1977;SDS011;989;53.016;8.346;2023-02-22T08:10:40;50.07;;;17.47;;
1977;SDS011;989;53.016;8.346;2023-02-22T08:13:07;67.50;;;21.87;;
1977;SDS011;989;53.016;8.346;2023-02-22T08:15:34;50.30;;;17.23;;
1977;SDS011;989;53.016;8.346;2023-02-22T08:18:01;54.10;;;18.10;;
1977;SDS011;989;53.016;8.346;2023-02-22T08:20:27;49.77;;;18.50;;
1977;SDS011;989;53.016;8.346;2023-02-22T08:22:54;53.40;;;18.87;;
1977;SDS011;989;53.016;8.346;2023-02-22T08:25:20;44.87;;;16.20;;
1977;SDS011;989;53.016;8.346;2023-02-22T08:27:47;53.07;;;16.57;;
1977;SDS011;989;53.016;8.346;2023-02-22T08:30:18;54.47;;;18.50;;
1977;SDS011;989;53.016;8.346;2023-02-22T08:32:44;39.27;;;17.70;;
1977;SDS011;989;53.016;8.346;2023-02-22T08:35:11;47.63;;;16.53;;
1977;SDS011;989;53.016;8.346;2023-02-22T08:37:40;40.57;;;16.30;;
1977;SDS011;989;53.016;8.346;2023-02-22T08:40:07;44.03;;;19.27;;
1977;SDS011;989;53.016;8.346;2023-02-22T08:42:33;42.60;;;17.77;;
1977;SDS011;989;53.016;8.346;2023-02-22T08:44:59;43.93;;;15.53;;
1977;SDS011;989;53.016;8.346;2023-02-22T08:47:25;43.27;;;17.90;;
1977;SDS011;989;53.016;8.346;2023-02-22T08:49:51;42.27;;;16.60;;
1977;SDS011;989;53.016;8.346;2023-02-22T08:52:18;47.13;;;15.93;;
1977;SDS011;989;53.016;8.346;2023-02-22T08:54:45;44.67;;;16.10;;
1977;SDS011;989;53.016;8.346;2023-02-22T08:57:11;43.73;;;15.90;;
1977;SDS011;989;53.016;8.346;2023-02-22T08:59:37;55.27;;;18.10;;
1977;SDS011;989;53.016;8.346;2023-02-22T09:02:03;48.60;;;18.00;;
1977;SDS011;989;53.016;8.346;2023-02-22T09:04:29;41.77;;;16.97;;
1977;SDS011;989;53.016;8.346;2023-02-22T09:06:55;45.87;;;17.03;;
1977;SDS011;989;53.016;8.346;2023-02-22T09:09:21;36.33;;;17.40;;
1977;SDS011;989;53.016;8.346;2023-02-22T09:11:47;37.53;;;16.30;;
1977;SDS011;989;53.016;8.346;2023-02-22T09:14:13;40.47;;;19.27;;
1977;SDS011;989;53.016;8.346;2023-02-22T09:16:40;45.73;;;19.67;;
1977;SDS011;989;53.016;8.346;2023-02-22T09:19:06;48.47;;;18.70;;
1977;SDS011;989;53.016;8.346;2023-02-22T09:21:32;45.17;;;19.17;;
1977;SDS011;989;53.016;8.346;2023-02-22T09:23:58;54.67;;;19.90;;
1977;SDS011;989;53.016;8.346;2023-02-22T09:26:32;44.17;;;18.03;;
1977;SDS011;989;53.016;8.346;2023-02-22T09:28:58;40.70;;;17.90;;
1977;SDS011;989;53.016;8.346;2023-02-22T09:31:24;49.47;;;20.40;;
1977;SDS011;989;53.016;8.346;2023-02-22T09:33:50;42.07;;;20.33;;
1977;SDS011;989;53.016;8.346;2023-02-22T09:36:16;53.77;;;19.47;;
1977;SDS011;989;53.016;8.346;2023-02-22T09:38:42;45.50;;;19.30;;
1977;SDS011;989;53.016;8.346;2023-02-22T09:41:12;60.27;;;21.70;;
1977;SDS011;989;53.016;8.346;2023-02-22T09:43:47;48.23;;;19.17;;
1977;SDS011;989;53.016;8.346;2023-02-22T09:48:57;47.70;;;19.17;;
1977;SDS011;989;53.016;8.346;2023-02-22T09:51:32;48.10;;;19.50;;
1977;SDS011;989;53.016;8.346;2023-02-22T09:53:59;38.90;;;16.60;;
1977;SDS011;989;53.016;8.346;2023-02-22T09:56:27;47.33;;;19.03;;
1977;SDS011;989;53.016;8.346;2023-02-22T09:58:55;43.60;;;18.77;;
1977;SDS011;989;53.016;8.346;2023-02-22T10:01:35;43.77;;;17.97;;
1977;SDS011;989;53.016;8.346;2023-02-22T10:04:06;43.10;;;18.93;;
1977;SDS011;989;53.016;8.346;2023-02-22T10:06:35;48.47;;;17.90;;
1977;SDS011;989;53.016;8.346;2023-02-22T10:09:02;51.87;;;17.80;;
1977;SDS011;989;53.016;8.346;2023-02-22T10:11:48;36.37;;;17.90;;
1977;SDS011;989;53.016;8.346;2023-02-22T10:22:14;41.80;;;17.40;;
1977;SDS011;989;53.016;8.346;2023-02-22T10:24:53;38.17;;;16.03;;
1977;SDS011;989;53.016;8.346;2023-02-22T10:27:25;43.33;;;15.67;;
1977;SDS011;989;53.016;8.346;2023-02-22T10:29:58;39.80;;;16.43;;
1977;SDS011;989;53.016;8.346;2023-02-22T10:32:27;41.03;;;18.27;;
1977;SDS011;989;53.016;8.346;2023-02-22T10:34:53;51.30;;;17.53;;
1977;SDS011;989;53.016;8.346;2023-02-22T10:37:27;56.23;;;18.43;;
1977;SDS011;989;53.016;8.346;2023-02-22T10:40:12;47.10;;;18.30;;
1977;SDS011;989;53.016;8.346;2023-02-22T10:42:41;36.73;;;15.57;;
1977;SDS011;989;53.016;8.346;2023-02-22T10:45:23;38.70;;;15.87;;
1977;SDS011;989;53.016;8.346;2023-02-22T10:47:51;40.40;;;16.80;;
1977;SDS011;989;53.016;8.346;2023-02-22T10:50:19;38.03;;;16.70;;
1977;SDS011;989;53.016;8.346;2023-02-22T10:52:46;37.90;;;17.60;;
1977;SDS011;989;53.016;8.346;2023-02-22T10:55:13;37.50;;;15.93;;
1977;SDS011;989;53.016;8.346;2023-02-22T10:57:39;33.00;;;14.43;;
1977;SDS011;989;53.016;8.346;2023-02-22T11:03:00;38.93;;;15.67;;
1977;SDS011;989;53.016;8.346;2023-02-22T11:07:59;34.00;;;16.77;;
1977;SDS011;989;53.016;8.346;2023-02-22T11:10:38;35.47;;;15.30;;
1977;SDS011;989;53.016;8.346;2023-02-22T11:15:43;38.37;;;16.70;;
1977;SDS011;989;53.016;8.346;2023-02-22T11:18:23;31.77;;;14.67;;
1977;SDS011;989;53.016;8.346;2023-02-22T11:20:57;29.50;;;15.30;;
1977;SDS011;989;53.016;8.346;2023-02-22T11:23:23;33.30;;;15.63;;
1977;SDS011;989;53.016;8.346;2023-02-22T11:25:49;34.33;;;16.27;;
1977;SDS011;989;53.016;8.346;2023-02-22T11:28:20;31.57;;;13.60;;
1977;SDS011;989;53.016;8.346;2023-02-22T11:30:55;37.70;;;15.60;;
1977;SDS011;989;53.016;8.346;2023-02-22T11:33:22;43.17;;;14.83;;
1977;SDS011;989;53.016;8.346;2023-02-22T11:35:52;41.30;;;16.07;;
1977;SDS011;989;53.016;8.346;2023-02-22T11:38:20;32.33;;;14.63;;
1977;SDS011;989;53.016;8.346;2023-02-22T11:41:03;33.67;;;13.77;;
1977;SDS011;989;53.016;8.346;2023-02-22T11:43:29;31.30;;;16.10;;
1977;SDS011;989;53.016;8.346;2023-02-22T11:48:37;36.73;;;14.87;;
1977;SDS011;989;53.016;8.346;2023-02-22T11:51:15;37.20;;;14.80;;
1977;SDS011;989;53.016;8.346;2023-02-22T11:56:39;31.63;;;14.60;;
1977;SDS011;989;53.016;8.346;2023-02-22T12:01:42;32.57;;;15.97;;
1977;SDS011;989;53.016;8.346;2023-02-22T12:04:16;37.87;;;16.33;;
1977;SDS011;989;53.016;8.346;2023-02-22T12:09:42;28.20;;;15.10;;
1977;SDS011;989;53.016;8.346;2023-02-22T12:14:40;25.50;;;13.57;;
1977;SDS011;989;53.016;8.346;2023-02-22T12:19:46;30.60;;;14.77;;
1977;SDS011;989;53.016;8.346;2023-02-22T12:22:20;34.90;;;14.80;;
1977;SDS011;989;53.016;8.346;2023-02-22T12:24:50;31.80;;;14.33;;
1977;SDS011;989;53.016;8.346;2023-02-22T12:27:19;39.13;;;15.03;;
1977;SDS011;989;53.016;8.346;2023-02-22T12:29:48;33.60;;;14.20;;
1977;SDS011;989;53.016;8.346;2023-02-22T12:32:37;28.90;;;14.07;;
1977;SDS011;989;53.016;8.346;2023-02-22T12:35:15;30.63;;;13.60;;
1977;SDS011;989;53.016;8.346;2023-02-22T12:50:31;28.80;;;14.50;;
1977;SDS011;989;53.016;8.346;2023-02-22T12:53:03;33.67;;;14.93;;
1977;SDS011;989;53.016;8.346;2023-02-22T12:55:34;24.60;;;12.70;;
1977;SDS011;989;53.016;8.346;2023-02-22T12:58:16;32.00;;;14.80;;
1977;SDS011;989;53.016;8.346;2023-02-22T13:00:47;28.87;;;13.67;;
1977;SDS011;989;53.016;8.346;2023-02-22T13:06:43;29.73;;;14.53;;
1977;SDS011;989;53.016;8.346;2023-02-22T13:09:14;27.10;;;14.37;;
1977;SDS011;989;53.016;8.346;2023-02-22T13:14:15;35.00;;;14.57;;
1977;SDS011;989;53.016;8.346;2023-02-22T13:16:56;31.70;;;14.80;;
1977;SDS011;989;53.016;8.346;2023-02-22T13:19:41;31.10;;;13.43;;
1977;SDS011;989;53.016;8.346;2023-02-22T13:29:28;37.00;;;14.37;;
1977;SDS011;989;53.016;8.346;2023-02-22T13:32:12;30.47;;;14.73;;
1977;SDS011;989;53.016;8.346;2023-02-22T13:40:24;32.00;;;16.30;;
1977;SDS011;989;53.016;8.346;2023-02-22T13:45:47;30.60;;;13.70;;
1977;SDS011;989;53.016;8.346;2023-02-22T13:53:29;28.83;;;12.97;;
1977;SDS011;989;53.016;8.346;2023-02-22T13:55:58;36.33;;;14.73;;
1977;SDS011;989;53.016;8.346;2023-02-22T13:58:25;31.10;;;14.90;;
1977;SDS011;989;53.016;8.346;2023-02-22T14:00:58;29.80;;;15.60;;
1977;SDS011;989;53.016;8.346;2023-02-22T14:05:54;28.23;;;15.80;;
1977;SDS011;989;53.016;8.346;2023-02-22T14:10:54;29.67;;;14.73;;
1977;SDS011;989;53.016;8.346;2023-02-22T14:13:24;37.10;;;14.70;;
1977;SDS011;989;53.016;8.346;2023-02-22T14:28:55;30.37;;;15.00;;
1977;SDS011;989;53.016;8.346;2023-02-22T14:31:26;33.83;;;14.50;;
1977;SDS011;989;53.016;8.346;2023-02-22T14:34:00;39.77;;;15.63;;
1977;SDS011;989;53.016;8.346;2023-02-22T14:36:34;28.27;;;14.80;;
1977;SDS011;989;53.016;8.346;2023-02-22T14:39:05;31.27;;;14.20;;
1977;SDS011;989;53.016;8.346;2023-02-22T14:41:34;25.90;;;13.87;;
1977;SDS011;989;53.016;8.346;2023-02-22T14:44:02;42.37;;;15.97;;
1977;SDS011;989;53.016;8.346;2023-02-22T14:46:29;33.20;;;16.83;;
1977;SDS011;989;53.016;8.346;2023-02-22T14:48:58;29.53;;;14.67;;
1977;SDS011;989;53.016;8.346;2023-02-22T14:51:34;38.43;;;16.80;;
1977;SDS011;989;53.016;8.346;2023-02-22T14:54:14;33.77;;;16.40;;
1977;SDS011;989;53.016;8.346;2023-02-22T14:56:53;32.27;;;14.53;;
1977;SDS011;989;53.016;8.346;2023-02-22T14:59:21;35.00;;;16.53;;
1977;SDS011;989;53.016;8.346;2023-02-22T15:01:49;34.07;;;16.40;;
1977;SDS011;989;53.016;8.346;2023-02-22T15:04:29;31.93;;;17.37;;
1977;SDS011;989;53.016;8.346;2023-02-22T15:06:56;37.90;;;17.30;;
1977;SDS011;989;53.016;8.346;2023-02-22T15:09:30;42.10;;;16.53;;
1977;SDS011;989;53.016;8.346;2023-02-22T15:14:27;34.53;;;16.87;;
1977;SDS011;989;53.016;8.346;2023-02-22T15:16:55;41.80;;;18.00;;
1977;SDS011;989;53.016;8.346;2023-02-22T15:19:26;38.93;;;17.80;;
1977;SDS011;989;53.016;8.346;2023-02-22T15:21:53;29.93;;;16.30;;
1977;SDS011;989;53.016;8.346;2023-02-22T15:24:23;36.80;;;17.20;;
1977;SDS011;989;53.016;8.346;2023-02-22T15:26:50;56.13;;;18.63;;
1977;SDS011;989;53.016;8.346;2023-02-22T15:29:19;34.10;;;16.27;;
1977;SDS011;989;53.016;8.346;2023-02-22T15:31:47;34.60;;;17.17;;
1977;SDS011;989;53.016;8.346;2023-02-22T15:36:39;37.97;;;15.40;;
1977;SDS011;989;53.016;8.346;2023-02-22T15:39:05;31.63;;;16.07;;
1977;SDS011;989;53.016;8.346;2023-02-22T15:41:43;34.97;;;16.50;;
1977;SDS011;989;53.016;8.346;2023-02-22T15:44:09;32.97;;;16.87;;
1977;SDS011;989;53.016;8.346;2023-02-22T15:46:36;29.43;;;15.03;;
1977;SDS011;989;53.016;8.346;2023-02-22T15:51:32;35.67;;;17.20;;
1977;SDS011;989;53.016;8.346;2023-02-22T15:53:59;36.30;;;16.87;;
1977;SDS011;989;53.016;8.346;2023-02-22T15:56:26;39.50;;;17.10;;
1977;SDS011;989;53.016;8.346;2023-02-22T15:58:59;46.00;;;15.97;;
1977;SDS011;989;53.016;8.346;2023-02-22T16:01:27;38.33;;;17.43;;
1977;SDS011;989;53.016;8.346;2023-02-22T16:03:55;35.70;;;15.97;;
1977;SDS011;989;53.016;8.346;2023-02-22T16:08:55;43.00;;;16.60;;
1977;SDS011;989;53.016;8.346;2023-02-22T16:11:34;36.30;;;17.57;;
1977;SDS011;989;53.016;8.346;2023-02-22T16:14:06;32.23;;;16.27;;
1977;SDS011;989;53.016;8.346;2023-02-22T16:16:47;32.50;;;16.27;;
1977;SDS011;989;53.016;8.346;2023-02-22T16:21:49;35.03;;;17.80;;
1977;SDS011;989;53.016;8.346;2023-02-22T16:24:31;44.33;;;17.87;;
1977;SDS011;989;53.016;8.346;2023-02-22T16:27:04;37.57;;;17.13;;
1977;SDS011;989;53.016;8.346;2023-02-22T16:29:30;53.43;;;18.73;;
1977;SDS011;989;53.016;8.346;2023-02-22T16:31:57;41.43;;;16.70;;
1977;SDS011;989;53.016;8.346;2023-02-22T16:34:23;44.37;;;15.97;;
1977;SDS011;989;53.016;8.346;2023-02-22T16:36:49;38.60;;;18.73;;
1977;SDS011;989;53.016;8.346;2023-02-22T16:41:43;43.53;;;17.80;;
1977;SDS011;989;53.016;8.346;2023-02-22T16:44:09;47.80;;;19.70;;
1977;SDS011;989;53.016;8.346;2023-02-22T16:46:36;44.50;;;18.20;;
1977;SDS011;989;53.016;8.346;2023-02-22T16:49:02;40.00;;;17.13;;
1977;SDS011;989;53.016;8.346;2023-02-22T16:51:31;57.87;;;20.23;;
1977;SDS011;989;53.016;8.346;2023-02-22T16:53:58;53.13;;;19.70;;
1977;SDS011;989;53.016;8.346;2023-02-22T16:56:26;46.57;;;19.73;;
1977;SDS011;989;53.016;8.346;2023-02-22T16:58:53;41.47;;;19.07;;
1977;SDS011;989;53.016;8.346;2023-02-22T17:01:19;46.50;;;20.30;;
1977;SDS011;989;53.016;8.346;2023-02-22T17:03:47;44.07;;;19.00;;
1977;SDS011;989;53.016;8.346;2023-02-22T17:06:14;39.37;;;19.03;;
1977;SDS011;989;53.016;8.346;2023-02-22T17:08:40;49.77;;;20.60;;
1977;SDS011;989;53.016;8.346;2023-02-22T17:11:07;50.13;;;20.43;;
1977;SDS011;989;53.016;8.346;2023-02-22T17:13:35;42.87;;;19.20;;
1977;SDS011;989;53.016;8.346;2023-02-22T17:16:01;44.30;;;20.43;;
1977;SDS011;989;53.016;8.346;2023-02-22T17:18:27;48.03;;;19.60;;
1977;SDS011;989;53.016;8.346;2023-02-22T17:20:57;45.43;;;18.70;;
1977;SDS011;989;53.016;8.346;2023-02-22T17:23:24;48.53;;;19.70;;
1977;SDS011;989;53.016;8.346;2023-02-22T17:26:00;49.17;;;18.87;;
1977;SDS011;989;53.016;8.346;2023-02-22T17:28:27;41.27;;;19.90;;